createdAt,value
2018-02-05T00:00:26.189Z,28.30
2018-02-05T00:01:00.073Z,31.52
2018-02-05T00:01:34.042Z,31.98
2018-02-05T00:02:07.945Z,28.73
2018-02-05T00:02:41.832Z,30.40
2018-02-05T00:03:15.750Z,28.83
2018-02-05T00:03:49.741Z,30.25
2018-02-05T00:04:23.605Z,30.48
2018-02-05T00:04:57.576Z,29.12
2018-02-05T00:05:31.544Z,28.65
2018-02-05T00:06:05.561Z,30.73
2018-02-05T00:06:39.421Z,28.27
2018-02-05T00:07:13.298Z,28.67
2018-02-05T00:07:47.474Z,31.15
2018-02-05T00:08:21.408Z,31.08
2018-02-05T00:08:55.387Z,29.37
2018-02-05T00:09:29.381Z,30.15
2018-02-05T00:10:03.405Z,31.80
2018-02-05T00:10:37.276Z,30.90
2018-02-05T00:11:11.152Z,31.50
2018-02-05T00:11:45.076Z,30.67
2018-02-05T00:12:18.962Z,30.85
2018-02-05T00:12:52.974Z,31.62
2018-02-05T00:13:26.877Z,30.90
2018-02-05T00:14:00.807Z,29.65
2018-02-05T00:14:34.688Z,30.92
2018-02-05T00:15:08.594Z,32.60
2018-02-05T00:15:42.600Z,30.50
2018-02-05T00:16:16.482Z,32.45
2018-02-05T00:16:50.596Z,29.87
2018-02-05T00:17:24.943Z,32.92
2018-02-05T00:17:58.832Z,31.92
2018-02-05T00:18:32.793Z,32.38
2018-02-05T00:19:06.708Z,31.50
2018-02-05T00:19:40.625Z,32.13
2018-02-05T00:20:14.618Z,31.10
2018-02-05T00:20:48.621Z,31.85
2018-02-05T00:21:22.515Z,33.80
2018-02-05T00:21:56.523Z,32.20
2018-02-05T00:22:30.470Z,32.05
2018-02-05T00:23:04.365Z,33.47
2018-02-05T00:23:38.300Z,31.90
2018-02-05T00:24:12.229Z,30.73
2018-02-05T00:24:46.160Z,32.42
2018-02-05T00:25:20.133Z,33.10
2018-02-05T00:25:54.028Z,32.30
2018-02-05T00:26:27.933Z,33.55
2018-02-05T00:27:01.842Z,33.78
2018-02-05T00:27:35.964Z,33.20
2018-02-05T00:28:09.840Z,32.22
2018-02-05T00:28:44.178Z,32.00
2018-02-05T00:29:18.120Z,33.65
2018-02-05T00:29:52.013Z,32.63
2018-02-05T00:30:26.175Z,33.33
2018-02-05T00:31:00.234Z,33.38
2018-02-05T00:31:34.354Z,35.95
2018-02-05T00:32:08.317Z,34.78
2018-02-05T00:32:42.256Z,33.10
2018-02-05T00:33:16.155Z,33.65
2018-02-05T00:33:50.119Z,32.60
2018-02-05T00:34:24.023Z,32.55
2018-02-05T00:34:57.939Z,34.15
2018-02-05T00:35:31.821Z,32.80
2018-02-05T00:36:05.896Z,33.20
2018-02-05T00:36:40.083Z,34.33
2018-02-05T00:37:14.016Z,33.85
2018-02-05T00:37:47.914Z,33.75
2018-02-05T00:38:21.838Z,34.80
2018-02-05T00:38:55.766Z,35.95
2018-02-05T00:39:29.647Z,34.47
2018-02-05T00:40:03.516Z,33.50
2018-02-05T00:40:37.507Z,35.60
2018-02-05T00:41:11.456Z,35.65
2018-02-05T00:41:45.351Z,35.63
2018-02-05T00:42:19.287Z,35.67
2018-02-05T00:42:53.245Z,34.47
2018-02-05T00:43:27.376Z,35.00
2018-02-05T00:44:01.474Z,35.97
2018-02-05T00:44:35.372Z,35.13
2018-02-05T00:45:09.298Z,35.85
2018-02-05T00:45:43.176Z,33.47
2018-02-05T00:46:17.148Z,34.95
2018-02-05T00:46:51.390Z,37.58
2018-02-05T00:47:25.325Z,34.20
2018-02-05T00:47:59.241Z,34.83
2018-02-05T00:48:33.129Z,37.05
2018-02-05T00:49:07.276Z,36.22
2018-02-05T00:49:41.193Z,37.38
2018-02-05T00:50:15.096Z,35.63
2018-02-05T00:50:49.060Z,38.20
2018-02-05T00:51:23.570Z,35.42
2018-02-05T00:51:57.545Z,36.70
2018-02-05T00:52:31.400Z,34.20
2018-02-05T00:53:05.306Z,34.97
2018-02-05T00:53:39.229Z,35.97
2018-02-05T00:54:13.117Z,35.90
2018-02-05T00:54:47.006Z,34.63
2018-02-05T00:55:20.993Z,35.22
2018-02-05T00:55:54.910Z,34.95
2018-02-05T00:56:29.005Z,32.42
2018-02-05T00:57:03.213Z,34.83
2018-02-05T00:57:37.084Z,35.10
2018-02-05T00:58:10.992Z,33.90
2018-02-05T00:58:44.990Z,32.80
2018-02-05T00:59:18.884Z,33.15
2018-02-05T00:59:53.101Z,33.63
2018-02-05T01:00:27.026Z,34.17
2018-02-05T01:01:01.084Z,33.97
2018-02-05T01:01:34.957Z,33.97
2018-02-05T01:02:08.870Z,34.38
2018-02-05T01:02:42.786Z,34.05
2018-02-05T01:03:16.914Z,32.95
2018-02-05T01:03:50.857Z,33.67
2018-02-05T01:04:25.086Z,32.40
2018-02-05T01:04:59.050Z,31.98
2018-02-05T01:05:33.064Z,32.55
2018-02-05T01:06:07.121Z,34.47
2018-02-05T01:06:41.017Z,33.30
2018-02-05T01:07:14.969Z,32.97
2018-02-05T01:07:48.949Z,33.10
2018-02-05T01:08:22.881Z,34.42
2018-02-05T01:08:57.047Z,33.17
2018-02-05T01:09:30.997Z,31.23
2018-02-05T01:10:05.048Z,34.75
2018-02-05T01:10:38.961Z,33.00
2018-02-05T01:11:12.940Z,34.67
2018-02-05T01:11:46.833Z,34.63
2018-02-05T01:12:20.704Z,32.83
2018-02-05T01:12:54.601Z,32.63
2018-02-05T01:13:28.498Z,33.92
2018-02-05T01:14:02.404Z,33.22
2018-02-05T01:14:36.469Z,34.20
2018-02-05T01:15:10.338Z,35.00
2018-02-05T01:15:44.270Z,32.78
2018-02-05T01:16:18.138Z,33.97
2018-02-05T01:16:52.080Z,34.95
2018-02-05T01:17:25.971Z,33.15
2018-02-05T01:17:59.898Z,34.85
2018-02-05T01:18:34.520Z,35.58
2018-02-05T01:19:08.437Z,33.10
2018-02-05T01:19:42.353Z,35.00
2018-02-05T01:20:16.314Z,34.05
2018-02-05T01:20:50.219Z,35.35
2018-02-05T01:21:24.435Z,33.22
2018-02-05T01:21:58.473Z,35.58
2018-02-05T01:22:32.465Z,34.22
2018-02-05T01:23:06.431Z,34.97
2018-02-05T01:23:40.343Z,33.28
2018-02-05T01:24:14.302Z,35.40
2018-02-05T01:24:48.369Z,34.38
2018-02-05T01:25:22.254Z,35.17
2018-02-05T01:25:56.314Z,34.33
2018-02-05T01:26:30.280Z,34.97
2018-02-05T01:27:04.196Z,35.70
2018-02-05T01:27:38.310Z,34.70
2018-02-05T01:28:12.384Z,34.40
2018-02-05T01:28:46.252Z,34.75
2018-02-05T01:29:20.184Z,35.25
2018-02-05T01:29:54.139Z,35.78
2018-02-05T01:30:27.997Z,32.65
2018-02-05T01:31:01.880Z,35.33
2018-02-05T01:31:35.959Z,33.15
2018-02-05T01:32:10.009Z,32.47
2018-02-05T01:32:44.132Z,33.85
2018-02-05T01:33:18.071Z,33.83
2018-02-05T01:33:51.979Z,32.55
2018-02-05T01:34:25.912Z,35.60
2018-02-05T01:34:59.829Z,33.30
2018-02-05T01:35:33.802Z,33.40
2018-02-05T01:36:07.793Z,35.33
2018-02-05T01:36:41.698Z,35.58
2018-02-05T01:37:15.853Z,35.50
2018-02-05T01:37:49.799Z,34.22
2018-02-05T01:38:23.735Z,35.00
2018-02-05T01:38:57.868Z,33.08
2018-02-05T01:39:31.789Z,32.95
2018-02-05T01:40:05.738Z,34.78
2018-02-05T01:40:39.866Z,35.03
2018-02-05T01:41:13.828Z,35.65
2018-02-05T01:41:47.685Z,35.60
2018-02-05T01:42:21.576Z,33.72
2018-02-05T01:42:55.467Z,34.03
2018-02-05T01:43:29.368Z,34.47
2018-02-05T01:44:03.264Z,34.90
2018-02-05T01:44:37.175Z,33.25
2018-02-05T01:45:11.087Z,35.05
2018-02-05T01:45:45.116Z,34.92
2018-02-05T01:46:19.361Z,33.08
2018-02-05T01:46:53.389Z,33.80
2018-02-05T01:47:27.264Z,33.40
2018-02-05T01:48:01.259Z,32.85
2018-02-05T01:48:35.401Z,32.13
2018-02-05T01:49:09.321Z,31.95
2018-02-05T01:49:43.256Z,34.35
2018-02-05T01:50:17.163Z,32.97
2018-02-05T01:50:51.137Z,31.85
2018-02-05T01:51:25.038Z,33.35
2018-02-05T01:51:59.136Z,32.78
2018-02-05T01:52:33.017Z,35.40
2018-02-05T01:53:06.921Z,32.65
2018-02-05T01:53:41.225Z,32.53
2018-02-05T01:54:15.153Z,32.75
2018-02-05T01:54:49.071Z,33.28
2018-02-05T01:55:22.942Z,32.70
2018-02-05T01:55:56.893Z,31.00
2018-02-05T01:56:30.754Z,33.88
2018-02-05T01:57:04.701Z,32.65
2018-02-05T01:57:38.802Z,31.70
2018-02-05T01:58:12.723Z,31.27
2018-02-05T01:58:46.744Z,30.37
2018-02-05T01:59:20.605Z,31.75
2018-02-05T01:59:54.792Z,32.67
2018-02-05T02:00:28.687Z,34.20
2018-02-05T02:01:02.801Z,31.08
2018-02-05T02:01:36.877Z,31.67
2018-02-05T02:02:10.760Z,32.00
2018-02-05T02:02:44.733Z,31.45
2018-02-05T02:03:18.588Z,31.70
2018-02-05T02:03:52.903Z,32.47
2018-02-05T02:04:26.821Z,34.40
2018-02-05T02:05:00.725Z,34.58
2018-02-05T02:05:34.713Z,33.15
2018-02-05T02:06:08.875Z,32.15
2018-02-05T02:06:42.853Z,34.42
2018-02-05T02:07:16.902Z,32.42
2018-02-05T02:07:50.772Z,33.67
2018-02-05T02:08:24.863Z,33.67
2018-02-05T02:08:58.964Z,30.80
2018-02-05T02:09:32.941Z,32.80
2018-02-05T02:10:06.834Z,34.28
2018-02-05T02:10:40.729Z,33.25
2018-02-05T02:11:14.721Z,32.70
2018-02-05T02:11:48.621Z,31.80
2018-02-05T02:12:22.599Z,31.77
2018-02-05T02:12:56.617Z,32.78
2018-02-05T02:13:30.580Z,30.92
2018-02-05T02:14:04.513Z,32.92
2018-02-05T02:14:38.440Z,33.30
2018-02-05T02:15:12.573Z,31.42
2018-02-05T02:15:46.534Z,33.03
2018-02-05T02:16:20.482Z,32.17
2018-02-05T02:16:54.421Z,32.53
2018-02-05T02:17:28.596Z,32.65
2018-02-05T02:18:02.526Z,32.85
2018-02-05T02:18:36.465Z,31.75
2018-02-05T02:19:10.487Z,31.87
2018-02-05T02:19:44.370Z,32.97
2018-02-05T02:20:18.551Z,30.65
2018-02-05T02:20:52.472Z,34.45
2018-02-05T02:21:26.465Z,34.78
2018-02-05T02:22:00.544Z,34.88
2018-02-05T02:22:34.463Z,32.40
2018-02-05T02:23:08.376Z,31.55
2018-02-05T02:23:42.249Z,33.00
2018-02-05T02:24:16.286Z,32.92
2018-02-05T02:24:50.161Z,33.75
2018-02-05T02:25:24.034Z,33.80
2018-02-05T02:25:57.976Z,31.90
2018-02-05T02:26:31.882Z,34.83
2018-02-05T02:27:05.757Z,32.78
2018-02-05T02:27:39.634Z,30.65
2018-02-05T02:28:13.509Z,31.92
2018-02-05T02:28:47.401Z,32.28
2018-02-05T02:29:21.305Z,32.38
2018-02-05T02:29:55.222Z,32.10
2018-02-05T02:30:29.111Z,33.15
2018-02-05T02:31:03.120Z,32.22
2018-02-05T02:31:37.317Z,33.25
2018-02-05T02:32:11.278Z,33.97
2018-02-05T02:32:45.248Z,32.67
2018-02-05T02:33:19.222Z,34.05
2018-02-05T02:33:53.117Z,31.42
2018-02-05T02:34:27.074Z,33.42
2018-02-05T02:35:01.058Z,31.83
2018-02-05T02:35:34.958Z,32.00
2018-02-05T02:36:09.209Z,33.10
2018-02-05T02:36:43.080Z,32.30
2018-02-05T02:37:17.082Z,31.37
2018-02-05T02:37:51.178Z,33.58
2018-02-05T02:38:25.052Z,32.03
2018-02-05T02:38:58.960Z,30.27
2018-02-05T02:39:32.836Z,33.13
2018-02-05T02:40:06.759Z,33.50
2018-02-05T02:40:40.932Z,32.00
2018-02-05T02:41:14.918Z,32.95
2018-02-05T02:41:48.825Z,31.52
2018-02-05T02:42:22.697Z,31.90
2018-02-05T02:42:56.633Z,32.53
2018-02-05T02:43:30.557Z,32.47
2018-02-05T02:44:05.270Z,33.13
2018-02-05T02:44:39.119Z,32.28
2018-02-05T02:45:13.019Z,31.65
2018-02-05T02:45:46.898Z,33.15
2018-02-05T02:46:21.176Z,29.45
2018-02-05T02:46:55.111Z,32.10
2018-02-05T02:47:29.019Z,31.65
2018-02-05T02:48:02.947Z,31.37
2018-02-05T02:48:36.908Z,32.25
2018-02-05T02:49:10.905Z,31.45
2018-02-05T02:49:44.784Z,32.03
2018-02-05T02:50:18.733Z,31.12
2018-02-05T02:50:52.677Z,32.53
2018-02-05T02:51:26.572Z,30.40
2018-02-05T02:52:00.568Z,31.85
2018-02-05T02:52:34.563Z,30.17
2018-02-05T02:53:08.462Z,32.15
2018-02-05T02:53:42.609Z,31.92
2018-02-05T02:54:16.506Z,30.40
2018-02-05T02:54:50.612Z,31.48
2018-02-05T02:55:24.775Z,30.95
2018-02-05T02:55:58.729Z,31.70
2018-02-05T02:56:32.662Z,29.40
2018-02-05T02:57:06.699Z,30.95
2018-02-05T02:57:40.632Z,32.75
2018-02-05T02:58:14.657Z,32.00
2018-02-05T02:58:48.550Z,34.67
2018-02-05T02:59:22.479Z,31.77
2018-02-05T02:59:56.390Z,30.73
2018-02-05T03:00:30.754Z,30.12
2018-02-05T03:01:04.620Z,33.05
2018-02-05T03:01:38.535Z,31.20
2018-02-05T03:02:12.618Z,30.80
2018-02-05T03:02:46.512Z,30.55
2018-02-05T03:03:20.394Z,31.67
2018-02-05T03:03:54.284Z,29.63
2018-02-05T03:04:28.188Z,30.70
2018-02-05T03:05:02.104Z,27.73
2018-02-05T03:05:36.259Z,30.48
2018-02-05T03:06:10.181Z,30.88
2018-02-05T03:06:44.141Z,32.03
2018-02-05T03:07:18.060Z,30.60
2018-02-05T03:07:52.183Z,29.60
2018-02-05T03:08:26.336Z,31.60
2018-02-05T03:09:00.296Z,29.73
2018-02-05T03:09:34.208Z,30.90
2018-02-05T03:10:08.102Z,27.62
2018-02-05T03:10:42.062Z,31.20
2018-02-05T03:11:16.224Z,28.77
2018-02-05T03:11:50.172Z,28.73
2018-02-05T03:12:24.103Z,30.12
2018-02-05T03:12:57.978Z,30.33
2018-02-05T03:13:31.959Z,28.12
2018-02-05T03:14:05.836Z,30.15
2018-02-05T03:14:39.939Z,29.48
2018-02-05T03:15:14.048Z,29.33
2018-02-05T03:15:47.947Z,30.08
2018-02-05T03:16:21.820Z,31.25
2018-02-05T03:16:55.949Z,29.98
2018-02-05T03:17:29.895Z,29.08
2018-02-05T03:18:03.813Z,27.35
2018-02-05T03:18:37.727Z,29.20
2018-02-05T03:19:11.801Z,28.98
2018-02-05T03:19:45.824Z,27.77
2018-02-05T03:20:19.699Z,30.62
2018-02-05T03:20:53.698Z,30.58
2018-02-05T03:21:27.581Z,31.20
2018-02-05T03:22:01.485Z,27.23
2018-02-05T03:22:35.565Z,31.65
2018-02-05T03:23:09.430Z,26.87
2018-02-05T03:23:43.317Z,27.85
2018-02-05T03:24:17.214Z,28.20
2018-02-05T03:24:51.089Z,30.17
2018-02-05T03:25:25.002Z,29.25
2018-02-05T03:25:59.005Z,28.77
2018-02-05T03:26:32.891Z,29.12
2018-02-05T03:27:06.976Z,29.02
2018-02-05T03:27:40.907Z,29.23
2018-02-05T03:28:14.984Z,29.37
2018-02-05T03:28:48.987Z,28.10
2018-02-05T03:29:22.933Z,30.70
2018-02-05T03:29:57.396Z,28.73
2018-02-05T03:30:31.376Z,29.33
2018-02-05T03:31:05.323Z,29.52
2018-02-05T03:31:39.236Z,28.48
2018-02-05T03:32:13.275Z,28.15
2018-02-05T03:32:47.548Z,30.35
2018-02-05T03:33:21.425Z,27.77
2018-02-05T03:33:55.524Z,29.87
2018-02-05T03:34:29.481Z,29.63
2018-02-05T03:35:03.341Z,27.80
2018-02-05T03:35:37.230Z,27.40
2018-02-05T03:36:11.148Z,28.92
2018-02-05T03:36:45.159Z,30.35
2018-02-05T03:37:19.046Z,28.05
2018-02-05T03:37:53.009Z,29.15
2018-02-05T03:38:26.880Z,29.02
2018-02-05T03:39:01.262Z,28.58
2018-02-05T03:39:35.284Z,29.95
2018-02-05T03:40:09.177Z,27.42
2018-02-05T03:40:43.056Z,26.80
2018-02-05T03:41:17.009Z,29.30
2018-02-05T03:41:50.864Z,29.02
2018-02-05T03:42:24.799Z,27.55
2018-02-05T03:42:58.756Z,28.42
2018-02-05T03:43:32.701Z,28.58
2018-02-05T03:44:06.552Z,28.35
2018-02-05T03:44:40.467Z,28.05
2018-02-05T03:45:14.536Z,28.75
2018-02-05T03:45:48.637Z,28.62
2018-02-05T03:46:22.587Z,29.63
2018-02-05T03:46:56.461Z,29.27
2018-02-05T03:47:30.357Z,29.73
2018-02-05T03:48:04.365Z,27.23
2018-02-05T03:48:38.506Z,28.33
2018-02-05T03:49:12.445Z,28.67
2018-02-05T03:49:46.378Z,29.95
2018-02-05T03:50:20.301Z,26.95
2018-02-05T03:50:54.332Z,27.40
2018-02-05T03:51:28.244Z,27.73
2018-02-05T03:52:02.152Z,27.15
2018-02-05T03:52:36.121Z,27.10
2018-02-05T03:53:10.023Z,26.83
2018-02-05T03:53:43.980Z,27.52
2018-02-05T03:54:17.933Z,28.48
2018-02-05T03:54:51.825Z,27.00
2018-02-05T03:55:26.033Z,27.27
2018-02-05T03:55:59.893Z,26.27
2018-02-05T03:56:33.869Z,27.70
2018-02-05T03:57:07.807Z,28.52
2018-02-05T03:57:41.935Z,30.02
2018-02-05T03:58:16.057Z,27.87
2018-02-05T03:58:49.957Z,27.58
2018-02-05T03:59:23.848Z,27.75
2018-02-05T03:59:57.903Z,26.95
2018-02-05T04:00:31.812Z,28.17
2018-02-05T04:01:05.793Z,27.00
2018-02-05T04:01:39.657Z,28.05
2018-02-05T04:02:13.525Z,27.33
2018-02-05T04:02:47.552Z,26.60
2018-02-05T04:03:21.513Z,25.98
2018-02-05T04:03:55.540Z,28.35
2018-02-05T04:04:29.417Z,27.85
2018-02-05T04:05:03.516Z,28.55
2018-02-05T04:05:37.428Z,27.62
2018-02-05T04:06:11.460Z,27.35
2018-02-05T04:06:51.106Z,27.98
2018-02-05T04:07:24.983Z,26.90
2018-02-05T04:07:58.870Z,26.73
2018-02-05T04:08:32.743Z,26.75
2018-02-05T04:09:06.625Z,27.80
2018-02-05T04:09:40.501Z,27.37
2018-02-05T04:10:14.405Z,28.48
2018-02-05T04:10:48.342Z,28.23
2018-02-05T04:11:22.238Z,27.90
2018-02-05T04:11:56.251Z,28.12
2018-02-05T04:12:30.231Z,25.37
2018-02-05T04:13:04.128Z,26.30
2018-02-05T04:13:37.995Z,27.87
2018-02-05T04:14:11.925Z,25.30
2018-02-05T04:14:45.785Z,27.70
2018-02-05T04:15:19.708Z,27.05
2018-02-05T04:15:53.677Z,26.37
2018-02-05T04:16:27.602Z,29.35
2018-02-05T04:17:01.465Z,26.67
2018-02-05T04:17:35.414Z,27.62
2018-02-05T04:18:09.334Z,28.15
2018-02-05T04:18:43.238Z,25.50
2018-02-05T04:19:17.143Z,25.80
2018-02-05T04:19:51.004Z,27.80
2018-02-05T04:20:25.053Z,28.20
2018-02-05T04:20:59.068Z,26.00
2018-02-05T04:21:32.929Z,26.40
2018-02-05T04:22:06.888Z,27.45
2018-02-05T04:22:40.799Z,29.77
2018-02-05T04:23:14.694Z,29.37
2018-02-05T04:23:48.589Z,29.08
2018-02-05T04:24:22.468Z,29.40
2018-02-05T04:24:56.569Z,27.00
2018-02-05T04:25:30.680Z,28.67
2018-02-05T04:26:04.717Z,27.00
2018-02-05T04:26:38.609Z,28.17
2018-02-05T04:27:12.565Z,31.35
2018-02-05T04:27:46.462Z,28.45
2018-02-05T04:28:20.518Z,30.67
2018-02-05T04:28:54.409Z,27.15
2018-02-05T04:29:28.308Z,28.62
2018-02-05T04:30:02.194Z,29.20
2018-02-05T04:30:36.146Z,28.33
2018-02-05T04:31:10.104Z,26.30
2018-02-05T04:31:43.994Z,27.98
2018-02-05T04:32:17.895Z,28.42
2018-02-05T04:32:51.798Z,29.00
2018-02-05T04:33:25.719Z,27.67
2018-02-05T04:34:00.064Z,27.92
2018-02-05T04:34:34.075Z,26.30
2018-02-05T04:35:07.968Z,27.58
2018-02-05T04:35:41.869Z,29.00
2018-02-05T04:36:15.756Z,27.95
2018-02-05T04:36:49.702Z,28.48
2018-02-05T04:37:23.686Z,27.77
2018-02-05T04:37:57.689Z,27.55
2018-02-05T04:38:31.614Z,27.87
2018-02-05T04:39:05.485Z,27.87
2018-02-05T04:39:39.381Z,27.45
2018-02-05T04:40:13.468Z,30.67
2018-02-05T04:40:47.344Z,27.67
2018-02-05T04:41:21.268Z,26.85
2018-02-05T04:41:55.210Z,26.73
2018-02-05T04:42:29.077Z,27.60
2018-02-05T04:43:02.972Z,26.20
2018-02-05T04:43:36.879Z,28.20
2018-02-05T04:44:10.739Z,27.60
2018-02-05T04:44:44.803Z,27.27
2018-02-05T04:45:18.682Z,26.10
2018-02-05T04:45:52.693Z,25.15
2018-02-05T04:46:26.750Z,27.52
2018-02-05T04:47:00.645Z,28.85
2018-02-05T04:47:34.568Z,26.45
2018-02-05T04:48:08.514Z,25.05
2018-02-05T04:48:42.430Z,26.83
2018-02-05T04:49:16.427Z,27.35
2018-02-05T04:49:50.322Z,27.50
2018-02-05T04:50:24.221Z,27.65
2018-02-05T04:50:58.213Z,25.70
2018-02-05T04:51:32.084Z,26.48
2018-02-05T04:52:06.104Z,26.77
2018-02-05T04:52:40.102Z,25.75
2018-02-05T04:53:14.071Z,26.85
2018-02-05T04:53:47.992Z,26.33
2018-02-05T04:54:21.977Z,27.77
2018-02-05T04:54:55.868Z,24.63
2018-02-05T04:55:29.797Z,26.00
2018-02-05T04:56:03.694Z,25.10
2018-02-05T04:56:37.545Z,27.33
2018-02-05T04:57:11.436Z,27.05
2018-02-05T04:57:45.461Z,26.15
2018-02-05T04:58:19.337Z,25.70
2018-02-05T04:58:53.406Z,26.00
2018-02-05T04:59:27.535Z,25.12
2018-02-05T05:00:01.433Z,24.12
2018-02-05T05:00:35.338Z,25.42
2018-02-05T05:01:09.233Z,26.05
2018-02-05T05:01:43.285Z,26.70
2018-02-05T05:02:17.137Z,25.45
2018-02-05T05:02:51.104Z,25.20
2018-02-05T05:03:24.965Z,26.75
2018-02-05T05:03:58.876Z,26.25
2018-02-05T05:04:32.784Z,25.02
2018-02-05T05:05:06.673Z,25.37
2018-02-05T05:05:40.612Z,24.52
2018-02-05T05:06:14.555Z,26.58
2018-02-05T05:06:48.680Z,26.65
2018-02-05T05:07:22.573Z,24.10
2018-02-05T05:07:56.469Z,25.27
2018-02-05T05:08:30.338Z,24.35
2018-02-05T05:09:04.274Z,25.20
2018-02-05T05:09:38.323Z,23.83
2018-02-05T05:10:12.231Z,26.00
2018-02-05T05:10:46.229Z,25.48
2018-02-05T05:11:20.188Z,25.95
2018-02-05T05:11:54.190Z,27.33
2018-02-05T05:12:28.133Z,28.48
2018-02-05T05:13:02.149Z,25.67
2018-02-05T05:13:36.320Z,26.92
2018-02-05T05:14:10.277Z,25.55
2018-02-05T05:14:44.247Z,27.08
2018-02-05T05:15:18.190Z,26.42
2018-02-05T05:15:52.106Z,24.12
2018-02-05T05:16:26.065Z,25.23
2018-02-05T05:16:59.936Z,24.50
2018-02-05T05:17:33.841Z,25.17
2018-02-05T05:18:07.692Z,25.50
2018-02-05T05:18:41.672Z,27.23
2018-02-05T05:19:15.572Z,28.92
2018-02-05T05:19:49.587Z,26.70
2018-02-05T05:20:23.470Z,27.65
2018-02-05T05:20:57.391Z,26.73
2018-02-05T05:21:31.322Z,26.60
2018-02-05T05:22:05.361Z,27.92
2018-02-05T05:22:39.257Z,27.05
2018-02-05T05:23:13.213Z,27.27
2018-02-05T05:23:47.660Z,28.95
2018-02-05T05:24:21.738Z,30.15
2018-02-05T05:24:55.668Z,26.98
2018-02-05T05:25:29.741Z,24.92
2018-02-05T05:26:03.651Z,28.60
2018-02-05T05:26:37.642Z,25.02
2018-02-05T05:27:11.571Z,23.80
2018-02-05T05:27:45.517Z,24.27
2018-02-05T05:28:19.458Z,24.58
2018-02-05T05:28:53.391Z,24.50
2018-02-05T05:29:27.459Z,23.45
2018-02-05T05:30:01.459Z,22.73
2018-02-05T05:30:35.321Z,25.27
2018-02-05T05:31:09.325Z,23.23
2018-02-05T05:31:43.213Z,23.85
2018-02-05T05:32:17.080Z,23.90
2018-02-05T05:32:50.978Z,22.02
2018-02-05T05:33:24.892Z,23.23
2018-02-05T05:33:59.077Z,24.15
2018-02-05T05:34:32.988Z,25.05
2018-02-05T05:35:06.916Z,23.90
2018-02-05T05:35:40.863Z,23.33
2018-02-05T05:36:14.762Z,24.80
2018-02-05T05:36:48.673Z,24.25
2018-02-05T05:37:22.613Z,23.95
2018-02-05T05:37:56.483Z,21.80
2018-02-05T05:38:30.362Z,22.20
2018-02-05T05:39:04.378Z,21.15
2018-02-05T05:39:38.313Z,21.23
2018-02-05T05:40:12.192Z,21.17
2018-02-05T05:40:46.173Z,21.65
2018-02-05T05:41:20.144Z,22.40
2018-02-05T05:41:54.259Z,22.50
2018-02-05T05:42:28.358Z,21.23
2018-02-05T05:43:02.473Z,21.73
2018-02-05T05:43:36.975Z,21.25
2018-02-05T05:44:10.978Z,20.60
2018-02-05T05:44:44.916Z,22.48
2018-02-05T05:45:18.821Z,21.25
2018-02-05T05:45:52.926Z,21.98
2018-02-05T05:46:26.847Z,21.95
2018-02-05T05:47:00.852Z,21.20
2018-02-05T05:47:34.795Z,19.50
2018-02-05T05:48:08.686Z,21.73
2018-02-05T05:48:42.973Z,21.33
2018-02-05T05:49:16.836Z,22.52
2018-02-05T05:49:50.749Z,22.65
2018-02-05T05:50:24.680Z,20.73
2018-02-05T05:50:58.584Z,21.90
2018-02-05T05:51:32.624Z,20.62
2018-02-05T05:52:06.583Z,21.27
2018-02-05T05:52:40.683Z,23.38
2018-02-05T05:53:14.588Z,20.52
2018-02-05T05:53:48.511Z,21.37
2018-02-05T05:54:22.529Z,19.80
2018-02-05T05:54:56.418Z,22.20
2018-02-05T05:55:30.424Z,21.33
2018-02-05T05:56:04.295Z,20.52
2018-02-05T05:56:38.292Z,20.15
2018-02-05T05:57:12.251Z,23.70
2018-02-05T05:57:46.186Z,21.87
2018-02-05T05:58:20.094Z,21.58
2018-02-05T05:58:54.300Z,21.58
2018-02-05T05:59:28.274Z,21.40
2018-02-05T06:00:02.287Z,21.55
2018-02-05T06:00:36.239Z,20.35
2018-02-05T06:01:10.377Z,21.00
2018-02-05T06:01:44.362Z,21.35
2018-02-05T06:02:18.260Z,21.55
2018-02-05T06:02:52.235Z,22.92
2018-02-05T06:03:26.374Z,22.33
2018-02-05T06:04:00.264Z,21.17
2018-02-05T06:04:34.204Z,21.83
2018-02-05T06:05:08.321Z,20.83
2018-02-05T06:05:42.382Z,21.58
2018-02-05T06:06:16.301Z,21.65
2018-02-05T06:06:50.350Z,22.77
2018-02-05T06:07:24.324Z,21.23
2018-02-05T06:07:58.496Z,20.58
2018-02-05T06:08:35.087Z,22.27
2018-02-05T06:09:09.008Z,21.12
2018-02-05T06:09:42.987Z,23.38
2018-02-05T06:10:17.352Z,21.10
2018-02-05T06:10:51.279Z,21.95
2018-02-05T06:11:25.790Z,20.92
2018-02-05T06:12:00.029Z,21.45
2018-02-05T06:12:33.954Z,20.67
2018-02-05T06:13:08.769Z,22.73
2018-02-05T06:13:42.697Z,20.90
2018-02-05T06:14:16.617Z,21.17
2018-02-05T06:14:50.530Z,20.30
2018-02-05T06:15:24.454Z,20.98
2018-02-05T06:15:58.376Z,23.92
2018-02-05T06:16:32.307Z,21.30
2018-02-05T06:17:06.294Z,23.48
2018-02-05T06:17:42.024Z,22.58
2018-02-05T06:18:15.952Z,20.25
2018-02-05T06:18:49.829Z,21.83
2018-02-05T06:19:23.768Z,22.13
2018-02-05T06:19:57.769Z,21.50
2018-02-05T06:20:31.792Z,21.67
2018-02-05T06:21:05.723Z,21.50
2018-02-05T06:21:39.599Z,19.70
2018-02-05T06:22:13.827Z,19.80
2018-02-05T06:22:47.706Z,21.27
2018-02-05T06:23:21.711Z,21.80
2018-02-05T06:23:55.704Z,21.83
2018-02-05T06:24:29.603Z,21.92
2018-02-05T06:25:03.594Z,23.20
2018-02-05T06:25:37.579Z,22.87
2018-02-05T06:26:11.432Z,22.00
2018-02-05T06:26:45.483Z,21.20
2018-02-05T06:27:19.378Z,24.00
2018-02-05T06:27:53.345Z,23.12
2018-02-05T06:28:27.356Z,23.50
2018-02-05T06:29:01.289Z,23.12
2018-02-05T06:29:35.250Z,23.23
2018-02-05T06:30:09.397Z,21.33
2018-02-05T06:30:43.344Z,21.92
2018-02-05T06:31:17.341Z,19.98
2018-02-05T06:31:51.214Z,21.30
2018-02-05T06:32:25.168Z,21.50
2018-02-05T06:32:59.220Z,22.52
2018-02-05T06:33:33.089Z,21.62
2018-02-05T06:34:07.483Z,20.90
2018-02-05T06:34:41.373Z,20.70
2018-02-05T06:35:15.332Z,19.75
2018-02-05T06:35:49.197Z,21.40
2018-02-05T06:36:24.156Z,21.23
2018-02-05T06:36:58.389Z,22.08
2018-02-05T06:37:32.294Z,21.35
2018-02-05T06:38:06.325Z,20.75
2018-02-05T06:38:40.580Z,21.30
2018-02-05T06:39:14.496Z,20.35
2018-02-05T06:39:48.427Z,20.80
2018-02-05T06:40:22.363Z,19.23
2018-02-05T06:40:56.336Z,20.90
2018-02-05T06:41:30.463Z,20.08
2018-02-05T06:42:04.352Z,19.23
2018-02-05T06:42:38.237Z,21.75
2018-02-05T06:43:12.156Z,21.17
2018-02-05T06:43:46.057Z,20.15
2018-02-05T06:44:20.106Z,20.20
2018-02-05T06:44:53.990Z,20.73
2018-02-05T06:45:27.881Z,19.85
2018-02-05T06:46:01.901Z,20.45
2018-02-05T06:46:35.831Z,21.17
2018-02-05T06:47:09.872Z,20.00
2018-02-05T06:47:43.867Z,19.67
2018-02-05T06:48:17.737Z,21.95
2018-02-05T06:48:51.749Z,20.20
2018-02-05T06:49:25.644Z,19.98
2018-02-05T06:49:59.819Z,21.75
2018-02-05T06:50:39.671Z,22.35
2018-02-05T06:51:19.489Z,21.40
2018-02-05T06:51:59.264Z,21.00
2018-02-05T06:52:39.103Z,21.48
2018-02-05T06:53:18.916Z,23.62
2018-02-05T06:53:58.734Z,23.05
2018-02-05T06:54:38.513Z,21.30
2018-02-05T06:55:18.626Z,19.65
2018-02-05T06:55:52.804Z,19.83
2018-02-05T06:56:26.729Z,20.77
2018-02-05T06:57:00.630Z,21.65
2018-02-05T06:57:34.516Z,22.40
2018-02-05T06:58:08.499Z,21.05
2018-02-05T06:58:42.547Z,19.33
2018-02-05T06:59:16.571Z,19.50
2018-02-05T06:59:50.516Z,20.60
2018-02-05T07:00:24.380Z,20.88
2018-02-05T07:00:58.519Z,22.70
2018-02-05T07:01:32.499Z,20.65
2018-02-05T07:02:06.508Z,22.08
2018-02-05T07:02:40.414Z,21.70
2018-02-05T07:03:14.433Z,21.75
2018-02-05T07:03:48.367Z,22.00
2018-02-05T07:04:22.302Z,24.00
2018-02-05T07:04:56.223Z,23.62
2018-02-05T07:05:30.122Z,23.23
2018-02-05T07:06:04.017Z,20.15
2018-02-05T07:06:37.910Z,22.30
2018-02-05T07:07:11.858Z,22.77
2018-02-05T07:07:45.721Z,23.30
2018-02-05T07:08:19.718Z,23.70
2018-02-05T07:08:53.653Z,22.27
2018-02-05T07:09:27.825Z,21.70
2018-02-05T07:10:01.889Z,21.87
2018-02-05T07:10:35.920Z,23.12
2018-02-05T07:11:09.808Z,22.77
2018-02-05T07:11:44.349Z,22.98
2018-02-05T07:12:18.241Z,23.62
2018-02-05T07:12:55.513Z,23.10
2018-02-05T07:13:30.788Z,23.77
2018-02-05T07:14:04.730Z,24.73
2018-02-05T07:14:38.601Z,23.40
2018-02-05T07:15:12.507Z,21.48
2018-02-05T07:15:46.576Z,21.00
2018-02-05T07:16:22.965Z,19.33
2018-02-05T07:16:57.032Z,18.73
2018-02-05T07:17:30.973Z,18.87
2018-02-05T07:18:06.028Z,18.30
2018-02-05T07:18:40.128Z,19.12